Consulta les dades en temps real de l'estació municipal de Susqueda - Veïnat del Coll
| Hora UTC | 09:00 |
|---|---|
| Temperatura | 24.6 ºC |
| Humitat | 42.0 % |
| Pressió | 1024.2 hPa |
| Pluja | 0.0 mm |
| Velocitat vent | 6.2 km/h |
| Direcció vent | ENE |
| Radiació solar | 620.9 W/m² |
| Temperatura (ºC) | Humitat (%) | Pressió (hPa) | Velocitat vent (km/h) | Precipitació (mm) | Radiació solar (W/m²) | |||||||||||||
|---|---|---|---|---|---|---|---|---|---|---|---|---|---|---|---|---|---|---|
| Hora UTC | Aire | Humitat | Pressió | Vel. | Dir. | Vel. Max | Dir. | Intent. màx 5 min. | Rad. Sol. | |||||||||
| 00:05 | 19.9 | 67.7 | 1023.2 | 4.3 | E | 4.3 | E | 0.0 | 0.1 | |||||||||
| 00:10 | 19.6 | 66.8 | 1023.2 | 3.7 | E | 8.5 | E | 0.0 | 0.1 | |||||||||
| 00:15 | 19.6 | 66.7 | 1023.2 | 4.4 | E | 7.8 | E | 0.0 | 0.1 | |||||||||
| 00:20 | 19.5 | 67.5 | 1023.2 | 4.0 | ESE | 7.4 | E | 0.0 | 0.1 | |||||||||
| 00:25 | 19.5 | 68.4 | 1023.2 | 4.2 | ESE | 8.5 | ESE | 0.0 | 0.1 | |||||||||
| 00:30 | 19.4 | 69.8 | 1023.2 | 4.9 | ESE | 8.1 | SE | 0.0 | 0.1 | |||||||||
| 00:35 | 19.4 | 71.1 | 1023.1 | 4.2 | ESE | 8.1 | E | 0.0 | 0.1 | |||||||||
| 00:40 | 19.3 | 75.2 | 1023.1 | 3.7 | ESE | 8.1 | SE | 0.0 | 0.1 | |||||||||
| 00:45 | 19.2 | 76.9 | 1023.2 | 3.6 | ESE | 6.0 | SE | 0.0 | 0.1 | |||||||||
| 00:50 | 19.0 | 74.7 | 1023.2 | 3.7 | ESE | 7.1 | ESE | 0.0 | 0.1 | |||||||||
| 00:55 | 19.1 | 69.5 | 1023.1 | 4.1 | ESE | 8.8 | ESE | 0.0 | 0.1 | |||||||||
| 01:00 | 19.5 | 65.7 | 1023.1 | 4.2 | ESE | 10.6 | SE | 0.0 | 0.1 | |||||||||
| 01:05 | 19.4 | 66.0 | 1023.0 | 3.2 | E | 6.0 | E | 0.0 | 0.1 | |||||||||
| 01:10 | 19.4 | 66.2 | 1023.0 | 3.9 | ESE | 6.7 | SE | 0.0 | 0.1 | |||||||||
| 01:15 | 19.3 | 67.5 | 1023.0 | 4.9 | SE | 6.7 | SE | 0.0 | 0.1 | |||||||||
| 01:20 | 19.3 | 67.9 | 1023.0 | 5.3 | SE | 7.1 | SE | 0.0 | 0.1 | |||||||||
| 01:25 | 19.3 | 66.0 | 1023.0 | 3.8 | ESE | 6.4 | ESE | 0.0 | 0.1 | |||||||||
| 01:30 | 19.3 | 63.8 | 1023.0 | 3.8 | ESE | 7.4 | E | 0.0 | 0.1 | |||||||||
| 01:35 | 19.3 | 62.8 | 1022.9 | 3.5 | ESE | 7.1 | E | 0.0 | 0.1 | |||||||||
| 01:40 | 19.4 | 62.0 | 1022.9 | 4.5 | ESE | 8.1 | SE | 0.0 | 0.1 | |||||||||
| 01:45 | 19.4 | 61.7 | 1022.9 | 5.3 | SE | 8.5 | SE | 0.0 | 0.1 | |||||||||
| 01:50 | 19.4 | 61.9 | 1022.9 | 3.5 | SE | 7.1 | SE | 0.0 | 0.1 | |||||||||
| 01:55 | 19.4 | 61.5 | 1022.9 | 3.9 | ESE | 6.7 | SSE | 0.0 | 0.1 | |||||||||
| 02:00 | 19.3 | 61.8 | 1022.9 | 1.6 | ESE | 3.5 | E | 0.0 | 0.1 | |||||||||
| 02:05 | 19.2 | 62.0 | 1022.9 | 1.0 | ESE | 3.9 | SE | 0.0 | 0.1 | |||||||||
| 02:10 | 19.1 | 62.4 | 1022.9 | 2.4 | ESE | 4.6 | ESE | 0.0 | 0.1 | |||||||||
| 02:15 | 19.2 | 61.3 | 1022.8 | 3.3 | SE | 6.7 | SE | 0.0 | 0.1 | |||||||||
| 02:20 | 19.3 | 60.6 | 1022.8 | 2.9 | SE | 5.3 | SE | 0.0 | 0.1 | |||||||||
| 02:25 | 19.2 | 60.5 | 1022.9 | 1.4 | SE | 5.3 | SE | 0.0 | 0.1 | |||||||||
| 02:30 | 19.2 | 60.8 | 1022.9 | 1.7 | SE | 4.2 | SE | 0.0 | 0.1 | |||||||||
| 02:35 | 19.1 | 62.3 | 1022.9 | 2.0 | SE | 4.2 | SSE | 0.0 | 0.1 | |||||||||
| 02:40 | 19.0 | 63.1 | 1022.9 | 1.5 | SE | 4.9 | SE | 0.0 | 0.1 | |||||||||
| 02:45 | 18.7 | 64.8 | 1022.9 | 0.1 | SSE | 1.4 | S | 0.0 | 0.1 | |||||||||
| 02:50 | 18.4 | 66.6 | 1022.9 | 0.1 | SSE | 1.8 | SSE | 0.0 | 0.1 | |||||||||
| 02:55 | 18.3 | 68.9 | 1022.8 | 1.8 | SE | 3.2 | SE | 0.0 | 0.1 | |||||||||
| 03:00 | 18.5 | 70.1 | 1022.8 | 2.5 | SSE | 3.9 | SE | 0.0 | 0.1 | |||||||||
| 03:05 | 18.6 | 68.4 | 1022.9 | 1.6 | SSE | 2.8 | SSE | 0.0 | 0.1 | |||||||||
| 03:10 | 18.5 | 66.9 | 1022.9 | 0.8 | SE | 2.5 | SE | 0.0 | 0.1 | |||||||||
| 03:15 | 18.4 | 69.0 | 1022.9 | 3.2 | SSE | 4.9 | SE | 0.0 | 0.1 | |||||||||
| 03:20 | 18.5 | 68.4 | 1022.9 | 2.6 | S | 4.2 | SSE | 0.0 | 0.1 | |||||||||
| 03:25 | 18.5 | 64.2 | 1022.9 | 2.8 | S | 4.2 | SE | 0.0 | 0.1 | |||||||||
| 03:30 | 18.3 | 63.4 | 1022.9 | 1.7 | S | 3.2 | SE | 0.0 | 0.1 | |||||||||
| 03:35 | 18.1 | 63.4 | 1022.9 | 0.1 | NNW | 1.1 | SSW | 0.0 | 0.1 | |||||||||
| 03:40 | 18.0 | 63.5 | 1022.9 | 1.1 | SSW | 2.8 | SSW | 0.0 | 0.1 | |||||||||
| 03:45 | 18.1 | 62.8 | 1022.9 | 1.7 | S | 3.2 | S | 0.0 | 0.1 | |||||||||
| 03:50 | 18.3 | 62.1 | 1022.9 | 1.1 | S | 1.8 | S | 0.0 | 0.1 | |||||||||
| 03:55 | 18.2 | 62.3 | 1022.8 | 0.9 | S | 2.5 | S | 0.0 | 0.1 | |||||||||
| 04:00 | 18.1 | 62.4 | 1022.8 | 2.2 | S | 3.5 | S | 0.0 | 0.1 | |||||||||
| 04:05 | 18.2 | 61.3 | 1022.8 | 2.5 | SSE | 3.5 | SSE | 0.0 | 0.1 | |||||||||
| 04:10 | 18.6 | 59.3 | 1022.8 | 2.2 | SSE | 3.9 | S | 0.0 | 0.1 | |||||||||
| 04:15 | 18.6 | 59.0 | 1022.8 | 0.5 | SSE | 2.5 | SE | 0.0 | 0.1 | |||||||||
| 04:20 | 18.4 | 59.9 | 1022.8 | 0.8 | SSW | 2.5 | S | 0.0 | 0.1 | |||||||||
| 04:25 | 18.0 | 61.4 | 1022.8 | 1.2 | S | 2.5 | SE | 0.0 | 0.1 | |||||||||
| 04:30 | 18.2 | 60.3 | 1022.8 | 2.1 | SE | 3.2 | SSE | 0.0 | 0.1 | |||||||||
| 04:35 | 18.6 | 58.8 | 1022.7 | 1.8 | SE | 4.6 | ESE | 0.0 | 0.1 | |||||||||
| 04:40 | 18.7 | 58.3 | 1022.7 | 4.8 | SE | 8.1 | SE | 0.0 | 0.1 | |||||||||
| 04:45 | 18.7 | 58.1 | 1022.7 | 5.5 | SE | 7.8 | SE | 0.0 | 0.1 | |||||||||
| 04:50 | 18.8 | 57.8 | 1022.7 | 2.2 | SE | 5.3 | ESE | 0.0 | 0.1 | |||||||||
| 04:55 | 18.8 | 57.5 | 1022.7 | 1.0 | SE | 3.2 | SSE | 0.0 | 0.2 | |||||||||
| 05:00 | 18.8 | 57.6 | 1022.7 | 1.0 | ESE | 3.5 | ESE | 0.0 | 0.5 | |||||||||
| 05:05 | 18.7 | 57.8 | 1022.8 | 2.7 | ESE | 4.9 | ESE | 0.0 | 1.1 | |||||||||
| 05:10 | 18.6 | 58.3 | 1022.8 | 2.6 | ESE | 4.6 | ESE | 0.0 | 2.1 | |||||||||
| 05:15 | 18.5 | 58.6 | 1022.8 | 3.1 | SE | 5.6 | SE | 0.0 | 3.6 | |||||||||
| 05:20 | 18.5 | 58.7 | 1022.8 | 3.2 | ESE | 6.0 | SE | 0.0 | 7.3 | |||||||||
| 05:25 | 18.6 | 58.7 | 1022.9 | 3.8 | ESE | 6.4 | SE | 0.0 | 13.7 | |||||||||
| 05:30 | 18.8 | 58.1 | 1022.9 | 3.4 | ESE | 5.6 | SE | 0.0 | 21.8 | |||||||||
| 05:35 | 18.9 | 57.8 | 1023.0 | 3.9 | ESE | 6.0 | SE | 0.0 | 32.9 | |||||||||
| 05:40 | 19.1 | 57.3 | 1023.0 | 3.4 | ESE | 4.9 | SE | 0.0 | 44.0 | |||||||||
| 05:45 | 19.2 | 57.0 | 1023.0 | 3.4 | ESE | 6.4 | E | 0.0 | 53.5 | |||||||||
| 05:50 | 19.5 | 56.1 | 1023.0 | 3.6 | ESE | 7.4 | ESE | 0.0 | 68.2 | |||||||||
| 05:55 | 19.8 | 56.4 | 1023.0 | 2.9 | ESE | 5.6 | ESE | 0.0 | 82.3 | |||||||||
| 06:00 | 20.2 | 55.3 | 1023.0 | 3.6 | E | 7.1 | E | 0.0 | 95.8 | |||||||||
| 06:05 | 20.5 | 53.9 | 1023.1 | 4.1 | E | 7.4 | E | 0.0 | 108.9 | |||||||||
| 06:10 | 20.8 | 52.3 | 1023.1 | 5.5 | E | 9.2 | E | 0.0 | 123.9 | |||||||||
| 06:15 | 21.1 | 50.7 | 1023.2 | 4.0 | E | 9.2 | E | 0.0 | 139.3 | |||||||||
| 06:20 | 21.3 | 51.8 | 1023.2 | 4.7 | E | 7.4 | E | 0.0 | 153.5 | |||||||||
| 06:25 | 21.5 | 50.3 | 1023.3 | 5.3 | ENE | 8.8 | ENE | 0.0 | 167.7 | |||||||||
| 06:30 | 21.5 | 49.8 | 1023.3 | 6.1 | ENE | 10.6 | NE | 0.0 | 182.4 | |||||||||
| 06:35 | 21.6 | 50.0 | 1023.4 | 4.4 | E | 8.8 | E | 0.0 | 198.5 | |||||||||
| 06:40 | 21.7 | 48.0 | 1023.4 | 4.0 | NE | 8.8 | ENE | 0.0 | 213.9 | |||||||||
| 06:45 | 21.7 | 48.2 | 1023.5 | 3.9 | ENE | 7.1 | ENE | 0.0 | 228.9 | |||||||||
| 06:50 | 22.1 | 48.9 | 1023.5 | 3.9 | ENE | 8.8 | E | 0.0 | 243.4 | |||||||||
| 06:55 | 22.1 | 47.7 | 1023.6 | 3.8 | ENE | 8.1 | NE | 0.0 | 259.1 | |||||||||
| 07:00 | 22.1 | 49.6 | 1023.6 | 4.9 | ENE | 9.9 | E | 0.0 | 273.4 | |||||||||
| 07:05 | 22.4 | 48.6 | 1023.6 | 6.2 | E | 11.6 | ESE | 0.0 | 289.6 | |||||||||
| 07:10 | 22.6 | 47.0 | 1023.6 | 5.2 | E | 9.2 | ESE | 0.0 | 305.6 | |||||||||
| 07:15 | 22.8 | 47.2 | 1023.6 | 6.1 | E | 12.4 | ENE | 0.0 | 322.0 | |||||||||
| 07:20 | 22.9 | 47.3 | 1023.6 | 5.6 | E | 12.4 | E | 0.0 | 338.6 | |||||||||
| 07:25 | 23.1 | 44.8 | 1023.7 | 6.6 | E | 13.4 | E | 0.0 | 354.0 | |||||||||
| 07:30 | 22.9 | 44.4 | 1023.7 | 7.6 | ENE | 13.8 | ENE | 0.0 | 369.8 | |||||||||
| 07:35 | 22.9 | 44.5 | 1023.7 | 8.2 | E | 15.5 | E | 0.0 | 385.4 | |||||||||
| 07:40 | 22.9 | 41.9 | 1023.7 | 6.8 | ENE | 12.7 | ENE | 0.0 | 400.9 | |||||||||
| 07:45 | 23.1 | 39.8 | 1023.7 | 8.2 | ENE | 13.1 | E | 0.0 | 415.6 | |||||||||
| 07:50 | 23.0 | 38.8 | 1023.7 | 6.0 | ENE | 12.4 | E | 0.0 | 429.7 | |||||||||
| 07:55 | 23.6 | 34.5 | 1023.7 | 6.7 | ENE | 12.4 | ENE | 0.0 | 444.8 | |||||||||
| 08:00 | 23.4 | 31.6 | 1023.7 | 6.3 | ENE | 13.8 | ESE | 0.0 | 455.1 | |||||||||
| 08:05 | 23.7 | 32.5 | 1023.8 | 5.3 | ENE | 11.6 | E | 0.0 | 473.5 | |||||||||
| 08:10 | 23.6 | 35.7 | 1023.8 | 4.7 | ENE | 10.9 | ESE | 0.0 | 487.1 | |||||||||
| 08:15 | 23.8 | 34.6 | 1023.9 | 5.9 | ENE | 13.4 | NE | 0.0 | 501.8 | |||||||||
| 08:20 | 23.4 | 38.5 | 1023.9 | 6.9 | ENE | 12.4 | NE | 0.0 | 515.2 | |||||||||
| 08:25 | 23.3 | 38.4 | 1024.0 | 5.6 | ENE | 11.3 | NE | 0.0 | 529.1 | |||||||||
| 08:30 | 23.5 | 37.9 | 1024.0 | 5.6 | NE | 10.9 | E | 0.0 | 542.8 | |||||||||
| 08:35 | 23.5 | 39.1 | 1024.1 | 5.8 | ENE | 11.6 | ENE | 0.0 | 555.2 | |||||||||
| 08:40 | 24.3 | 39.1 | 1024.1 | 5.4 | E | 13.1 | E | 0.0 | 567.8 | |||||||||
| 08:45 | 24.6 | 38.8 | 1024.2 | 5.4 | ENE | 12.0 | ENE | 0.0 | 580.3 | |||||||||
| 08:50 | 24.8 | 39.6 | 1024.2 | 4.3 | ENE | 11.3 | NE | 0.0 | 593.5 | |||||||||
| 08:55 | 24.5 | 41.4 | 1024.2 | 5.9 | ENE | 12.4 | E | 0.0 | 607.7 | |||||||||
| 09:00 | 24.6 | 42.0 | 1024.2 | 6.2 | ENE | 11.6 | ENE | 0.0 | 620.9 | |||||||||
| Màxima | 24.8 | 76.9 | 1024.2 | 8.2 | ENE | 15.5 | E | 0.0 | 620.9 | |||||||||
| Mínima | 18.0 | 31.6 | 1022.7 | |||||||||||||||
| Total | 0.0 | |||||||||||||||||